EmailTwitter


Observations de surface / Royaume-Uni / EGLL (03772)

Régions: Québec | Canada | États-Unis | Europe | France | UK | Ailleurs
Station
Affichage
Infos & localisation pour EGLL (03772) | Aide pour décoder les METARs

Observations prises le 2020-02-29 à 00H50 UTC à LONDON/HEATHROW, UK (EGLL)

Etat du ciel: couvert.

Température: 11.0 Celsius

Point de rosée: 9.0 Celsius

Humidité relative: 87%

Facteur vent: 8.

Vents: Sud-ouest à 28 km/h ou 15 noeuds.

Pression au niveau moyen de la mer: 99.10 kilopascals.

Visibilité horizontale: 6.21 milles terrestres ou 9.94 kilomètres.

Hauteur du plafond: 366 mètres ( 1200 pieds ).

Observation METAR:

EGLL 290050Z AUTO 21015KT 9999 BKN012 OVC027 11/09 Q0991 TEMPO SCT012=